Leisenring, Pennsylvania
Current Conditions -  °F | °C
As of 1:45 PM on Friday 28 Nov 2014 (Local Time) from KLBE Reporting Station
Broken Clouds Broken Clouds  
Wind Chill: 18°   Ceiling: 4100
Heat Index: 27°   Visibility: 10mi
Dew Point: 14°   Wind: 8mph
Humidity: 59%   Direction: 250°WSW
Pressure: 30.28"   Gusts: NA
Location:  40°N, 79.64°W
Report Text: KLBE 281845Z 25007KT 10SM SCT035 BKN041 M03/M10 A3028
Loading
Personal Weather Stations






























Interactive Weather Map New forecast layout! Learn more

10-Day Weather Forecast

Advertisements
Track Severe Weather on mobile